Terminal Aerodrome Forecast
Issued by NWS

Home | Current Version | Previous Version | Text Only | Print | Product List | Glossary On
Versions: 1 2 3 4 5 6 7 8 9 10 11 12 13 14 15 16 17 18 19 20 21 22 23 24 25 26 27 28 29 30 31 32 33 34
000
FTUS43 KDLH 272300 RRA
TAFHIB
TAF
KHIB 272340Z 2800/2824 28005KT P6SM SCT050
     FM280100 VRB03KT P6SM SKC
     FM280600 VRB02KT 3SM BR SKC
      TEMPO 2808/2812 1/2SM FG SCT003
     FM281500 18007KT P6SM SCT035
     FM282100 16006KT P6SM SCT045 SCT180=

USA.gov is the U.S. government's official web portal to all federal, state and local government web resources and services.